createdAt,value
2023-04-23T00:03:33.574Z,7.62
2023-04-23T00:08:42.013Z,7.55
2023-04-23T00:13:47.747Z,7.59
2023-04-23T00:18:51.474Z,7.62
2023-04-23T00:23:55.087Z,7.67
2023-04-23T00:28:58.398Z,7.74
2023-04-23T00:34:01.913Z,7.80
2023-04-23T00:39:05.336Z,7.86
2023-04-23T00:44:13.414Z,7.96
2023-04-23T00:49:17.655Z,8.01
2023-04-23T00:54:20.994Z,8.00
2023-04-23T00:59:28.191Z,7.99
2023-04-23T01:04:32.845Z,7.97
2023-04-23T01:09:36.355Z,7.95
2023-04-23T01:14:40.231Z,7.95
2023-04-23T01:19:43.900Z,7.96
2023-04-23T01:24:48.132Z,8.07
2023-04-23T01:29:52.462Z,8.07
2023-04-23T01:34:57.211Z,8.04
2023-04-23T01:40:01.441Z,8.05
2023-04-23T01:45:05.161Z,8.06
2023-04-23T01:50:09.848Z,8.04
2023-04-23T01:55:14.440Z,8.06
2023-04-23T02:00:18.429Z,8.05
2023-04-23T02:05:22.000Z,7.94
2023-04-23T02:10:26.164Z,7.81
2023-04-23T02:15:40.981Z,7.69
2023-04-23T02:20:44.826Z,7.54
2023-04-23T02:25:48.135Z,7.45
2023-04-23T02:30:51.651Z,7.38
2023-04-23T02:35:55.164Z,7.33
2023-04-23T02:40:58.700Z,7.30
2023-04-23T02:46:08.722Z,7.25
2023-04-23T02:51:14.004Z,7.22
2023-04-23T02:56:17.412Z,7.17
2023-04-23T03:01:21.285Z,7.13
2023-04-23T03:06:25.266Z,7.10
2023-04-23T03:11:28.688Z,7.09
2023-04-23T03:16:32.644Z,7.08
2023-04-23T03:21:36.123Z,7.08
2023-04-23T03:26:39.533Z,7.09
2023-04-23T03:31:42.948Z,7.07
2023-04-23T03:36:48.923Z,7.07
2023-04-23T03:41:52.435Z,7.07
2023-04-23T03:46:55.848Z,7.09
2023-04-23T03:51:59.577Z,7.11
2023-04-23T03:57:03.905Z,7.15
2023-04-23T04:02:07.481Z,7.22
2023-04-23T04:07:12.376Z,7.36
2023-04-23T04:12:16.812Z,7.59
2023-04-23T04:17:20.261Z,7.76
2023-04-23T04:22:24.455Z,7.97
2023-04-23T04:27:27.987Z,8.21
2023-04-23T04:32:32.623Z,8.45
2023-04-23T04:37:36.506Z,8.70
2023-04-23T04:42:39.847Z,8.96
2023-04-23T04:47:43.377Z,9.23
2023-04-23T04:52:46.987Z,9.47
2023-04-23T04:57:50.498Z,9.73
2023-04-23T05:02:54.740Z,9.96
2023-04-23T05:08:02.550Z,10.25
2023-04-23T05:13:06.262Z,10.53
2023-04-23T05:18:11.105Z,10.84
2023-04-23T05:23:14.565Z,11.14
2023-04-23T05:28:18.359Z,11.45
2023-04-23T05:33:21.766Z,11.75
2023-04-23T05:38:25.559Z,12.11
2023-04-23T05:43:29.089Z,12.46
2023-04-23T05:48:32.611Z,12.77
2023-04-23T05:53:36.120Z,13.10
2023-04-23T05:58:39.528Z,13.45
2023-04-23T06:03:45.854Z,13.73
2023-04-23T06:08:51.266Z,14.03
2023-04-23T06:13:54.582Z,14.29
2023-04-23T06:18:58.324Z,14.57
2023-04-23T06:24:01.831Z,14.84
2023-04-23T06:29:05.228Z,15.16
2023-04-23T06:34:08.774Z,15.47
2023-04-23T06:39:12.256Z,15.76
2023-04-23T06:44:15.873Z,16.03
2023-04-23T06:49:21.200Z,16.31
2023-04-23T06:54:25.161Z,16.56
2023-04-23T06:59:28.775Z,16.81
2023-04-23T07:04:33.656Z,17.02
2023-04-23T07:09:37.046Z,17.26
2023-04-23T07:14:40.918Z,17.48
2023-04-23T07:19:44.290Z,17.69
2023-04-23T07:24:47.818Z,17.91
2023-04-23T07:29:51.429Z,18.11
2023-04-23T07:34:56.490Z,18.31
2023-04-23T07:40:01.075Z,18.52
2023-04-23T07:45:06.117Z,18.68
2023-04-23T07:50:10.497Z,18.86
2023-04-23T07:55:13.857Z,19.05
2023-04-23T08:00:17.538Z,19.19
2023-04-23T08:05:21.329Z,19.45
2023-04-23T08:10:24.669Z,19.64
2023-04-23T08:15:28.194Z,19.73
2023-04-23T08:20:32.660Z,19.87
2023-04-23T08:25:36.035Z,20.04
2023-04-23T08:30:39.858Z,20.14
2023-04-23T08:35:43.377Z,20.34
2023-04-23T08:40:49.142Z,20.48
2023-04-23T08:45:54.409Z,20.59
2023-04-23T08:50:59.659Z,20.66
2023-04-23T08:56:04.093Z,20.73
2023-04-23T09:01:08.339Z,20.81
2023-04-23T09:06:12.565Z,20.89
2023-04-23T09:11:17.518Z,21.05
2023-04-23T09:16:20.984Z,21.21
2023-04-23T09:21:24.640Z,21.30
2023-04-23T09:26:28.361Z,21.43
2023-04-23T09:31:31.810Z,21.51
2023-04-23T09:36:37.537Z,21.60
2023-04-23T09:41:41.570Z,21.68
2023-04-23T09:46:45.296Z,21.74
2023-04-23T09:51:50.145Z,21.77
2023-04-23T09:57:01.227Z,21.78
2023-04-23T10:02:07.165Z,21.86
2023-04-23T10:12:40.977Z,22.06
2023-04-23T10:17:47.045Z,22.15
2023-04-23T10:22:52.605Z,22.28
2023-04-23T10:27:58.796Z,22.40
2023-04-23T10:33:06.045Z,22.50
2023-04-23T10:39:00.486Z,22.61
2023-04-23T10:44:07.455Z,22.73
2023-04-23T10:49:11.003Z,22.84
2023-04-23T10:54:15.901Z,22.98
2023-04-23T10:59:23.040Z,23.11
2023-04-23T11:04:29.564Z,23.21
2023-04-23T11:09:49.860Z,23.19
2023-04-23T11:14:59.745Z,23.20
2023-04-23T11:20:11.929Z,23.30
2023-04-23T11:25:20.079Z,23.43
2023-04-23T11:30:26.396Z,23.52
2023-04-23T11:35:32.310Z,23.68
2023-04-23T11:40:36.046Z,23.81
2023-04-23T11:45:39.513Z,23.91
2023-04-23T11:50:42.967Z,23.92
2023-04-23T11:55:49.551Z,24.02
2023-04-23T12:00:59.632Z,24.22
2023-04-23T12:06:03.026Z,24.31
2023-04-23T12:11:07.366Z,24.40
2023-04-23T12:16:11.173Z,24.53
2023-04-23T12:21:15.206Z,24.61
2023-04-23T12:26:20.527Z,24.54
2023-04-23T12:31:27.966Z,24.66
2023-04-23T12:36:32.192Z,24.75
2023-04-23T12:41:35.642Z,24.94
2023-04-23T12:46:39.365Z,25.25
2023-04-23T12:51:42.859Z,25.43
2023-04-23T12:56:46.281Z,25.49
2023-04-23T13:01:51.488Z,25.55
2023-04-23T13:06:55.253Z,25.67
2023-04-23T13:12:00.613Z,25.80
2023-04-23T13:17:04.427Z,26.17
2023-04-23T13:22:08.046Z,26.38
2023-04-23T13:27:11.763Z,26.42
2023-04-23T13:32:16.622Z,26.40
2023-04-23T13:37:20.129Z,26.44
2023-04-23T13:42:23.652Z,26.59
2023-04-23T13:47:31.835Z,26.63
2023-04-23T13:52:37.652Z,26.66
2023-04-23T13:57:41.156Z,26.86
2023-04-23T14:02:44.651Z,27.34
2023-04-23T14:07:48.697Z,28.66
2023-04-23T14:12:52.120Z,30.03
2023-04-23T14:17:56.566Z,30.91
2023-04-23T14:23:12.046Z,34.66
2023-04-23T14:28:29.588Z,38.45
2023-04-23T14:33:33.418Z,37.40
2023-04-23T14:38:36.832Z,36.32
2023-04-23T14:43:40.443Z,41.32
2023-04-23T14:48:43.969Z,45.91
2023-04-23T14:53:47.266Z,48.21
2023-04-23T14:58:50.677Z,49.84
2023-04-23T15:03:54.361Z,51.92
2023-04-23T15:08:57.911Z,52.79
2023-04-23T15:14:21.394Z,53.64
2023-04-23T15:19:25.010Z,54.38
2023-04-23T15:24:28.589Z,55.09
2023-04-23T15:29:31.845Z,55.50
2023-04-23T15:34:35.316Z,55.12
2023-04-23T15:39:38.845Z,55.34
2023-04-23T15:44:42.497Z,55.54
2023-04-23T15:49:46.730Z,54.97
2023-04-23T15:54:50.244Z,54.34
2023-04-23T15:59:55.907Z,54.26
2023-04-23T16:04:59.260Z,53.68
2023-04-23T16:10:02.832Z,52.87
2023-04-23T16:15:06.735Z,52.53
2023-04-23T16:20:10.687Z,52.24
2023-04-23T16:25:14.105Z,51.64
2023-04-23T16:30:17.625Z,50.26
2023-04-23T16:35:21.134Z,49.06
2023-04-23T16:40:24.551Z,48.18
2023-04-23T16:45:28.261Z,47.07
2023-04-23T16:50:31.888Z,44.75
2023-04-23T16:55:38.468Z,42.27
2023-04-23T17:00:41.885Z,41.41
2023-04-23T17:05:49.591Z,40.20
2023-04-23T17:10:53.716Z,37.90
2023-04-23T17:15:58.283Z,34.87
2023-04-23T17:21:01.798Z,32.13
2023-04-23T17:26:06.464Z,29.78
2023-04-23T17:31:10.004Z,27.77
2023-04-23T17:36:13.555Z,26.17
2023-04-23T17:41:17.901Z,24.83
2023-04-23T17:46:21.663Z,23.77
2023-04-23T17:59:49.688Z,21.55
2023-04-23T18:05:21.605Z,20.61
2023-04-23T18:10:28.626Z,19.98
2023-04-23T18:15:31.941Z,19.50
2023-04-23T18:21:19.341Z,19.02
2023-04-23T18:26:42.371Z,18.66
2023-04-23T18:32:27.562Z,18.37
2023-04-23T18:38:09.238Z,18.17
2023-04-23T18:43:55.890Z,17.97
2023-04-23T18:49:32.428Z,17.81
2023-04-23T18:54:35.511Z,17.61
2023-04-23T19:00:16.367Z,17.44
2023-04-23T19:06:02.099Z,17.31
2023-04-23T19:12:15.779Z,17.16
2023-04-23T19:17:50.905Z,16.96
2023-04-23T19:22:53.332Z,16.82
2023-04-23T19:28:06.247Z,16.61
2023-04-23T19:33:16.242Z,16.44
2023-04-23T19:38:27.599Z,16.24
2023-04-23T19:43:30.004Z,16.02
2023-04-23T19:48:34.362Z,15.98
2023-04-23T19:53:45.868Z,15.94
2023-04-23T19:58:51.097Z,15.90
2023-04-23T20:04:11.383Z,15.79
2023-04-23T20:09:24.078Z,15.71
2023-04-23T20:14:39.329Z,15.66
2023-04-23T20:19:46.178Z,15.65
2023-04-23T20:25:01.487Z,15.65
2023-04-23T20:30:17.175Z,15.66
2023-04-23T20:35:28.119Z,15.69
2023-04-23T20:40:46.460Z,15.67
2023-04-23T20:46:04.166Z,15.67
2023-04-23T20:51:07.413Z,15.68
2023-04-23T20:56:14.983Z,15.68
2023-04-23T21:01:31.282Z,15.69
2023-04-23T21:06:48.299Z,15.69
2023-04-23T21:11:50.710Z,15.70
2023-04-23T21:17:07.508Z,15.70
2023-04-23T21:22:09.568Z,15.64
2023-04-23T21:27:20.928Z,15.59
2023-04-23T21:32:36.301Z,15.56
2023-04-23T21:37:38.307Z,15.53
2023-04-23T21:42:47.141Z,15.49
2023-04-23T21:48:05.576Z,15.46
2023-04-23T21:53:28.641Z,15.47
2023-04-23T21:58:40.516Z,15.46
2023-04-23T22:03:49.826Z,15.41
2023-04-23T22:09:29.453Z,15.41
2023-04-23T22:14:31.728Z,15.39
2023-04-23T22:19:40.097Z,15.27
2023-04-23T22:27:17.381Z,15.26
2023-04-23T22:32:20.948Z,15.18
2023-04-23T22:37:25.017Z,15.07
2023-04-23T22:42:28.332Z,14.98
2023-04-23T22:47:32.207Z,14.90
2023-04-23T22:52:35.787Z,14.82
2023-04-23T22:57:39.492Z,14.75
2023-04-23T23:02:42.985Z,14.70
2023-04-23T23:07:46.521Z,14.67
2023-04-23T23:12:50.035Z,14.63
2023-04-23T23:17:54.172Z,14.61
2023-04-23T23:22:57.892Z,14.55
2023-04-23T23:28:01.504Z,14.50
2023-04-23T23:33:05.580Z,14.44
2023-04-23T23:38:09.357Z,14.36
2023-04-23T23:43:12.767Z,14.30
2023-04-23T23:48:16.387Z,14.24
2023-04-23T23:53:19.801Z,14.19
2023-04-23T23:58:23.417Z,14.14
